sensor_id;sensor_type;location;lat;lon;timestamp;temperature;humidity
32522;DHT22;18963;51.504;5.316;2022-10-22T00:01:12;11.20;99.90
32522;DHT22;18963;51.504;5.316;2022-10-22T00:03:38;11.20;99.90
32522;DHT22;18963;51.504;5.316;2022-10-22T00:06:04;11.20;99.90
32522;DHT22;18963;51.504;5.316;2022-10-22T00:08:30;11.20;99.90
32522;DHT22;18963;51.504;5.316;2022-10-22T00:10:55;11.30;99.90
32522;DHT22;18963;51.504;5.316;2022-10-22T00:13:24;11.40;99.90
32522;DHT22;18963;51.504;5.316;2022-10-22T00:15:49;11.40;99.90
32522;DHT22;18963;51.504;5.316;2022-10-22T00:18:15;11.50;99.90
32522;DHT22;18963;51.504;5.316;2022-10-22T00:20:40;11.60;99.90
32522;DHT22;18963;51.504;5.316;2022-10-22T00:23:06;11.70;99.90
32522;DHT22;18963;51.504;5.316;2022-10-22T00:25:34;11.70;99.90
32522;DHT22;18963;51.504;5.316;2022-10-22T00:28:00;11.80;99.90
32522;DHT22;18963;51.504;5.316;2022-10-22T00:30:26;11.80;99.90
32522;DHT22;18963;51.504;5.316;2022-10-22T00:32:52;11.80;99.90
32522;DHT22;18963;51.504;5.316;2022-10-22T00:35:18;11.80;99.90
32522;DHT22;18963;51.504;5.316;2022-10-22T00:37:43;11.80;99.90
32522;DHT22;18963;51.504;5.316;2022-10-22T00:40:09;11.80;99.90
32522;DHT22;18963;51.504;5.316;2022-10-22T00:42:35;11.90;99.90
32522;DHT22;18963;51.504;5.316;2022-10-22T00:47:53;12.10;99.90
32522;DHT22;18963;51.504;5.316;2022-10-22T00:50:30;12.10;99.90
32522;DHT22;18963;51.504;5.316;2022-10-22T00:52:58;12.10;99.90
32522;DHT22;18963;51.504;5.316;2022-10-22T00:55:25;12.20;99.90
32522;DHT22;18963;51.504;5.316;2022-10-22T00:57:53;12.20;99.90
32522;DHT22;18963;51.504;5.316;2022-10-22T01:00:20;12.20;99.90
32522;DHT22;18963;51.504;5.316;2022-10-22T01:02:47;12.20;99.90
32522;DHT22;18963;51.504;5.316;2022-10-22T01:05:13;12.30;99.90
32522;DHT22;18963;51.504;5.316;2022-10-22T01:07:46;12.30;99.90
32522;DHT22;18963;51.504;5.316;2022-10-22T01:10:21;12.30;99.90
32522;DHT22;18963;51.504;5.316;2022-10-22T01:13:21;12.30;99.90
32522;DHT22;18963;51.504;5.316;2022-10-22T01:21:25;12.30;99.90
32522;DHT22;18963;51.504;5.316;2022-10-22T01:27:17;12.30;99.90
32522;DHT22;18963;51.504;5.316;2022-10-22T01:30:05;12.30;99.90
32522;DHT22;18963;51.504;5.316;2022-10-22T01:32:38;12.30;99.90
32522;DHT22;18963;51.504;5.316;2022-10-22T01:35:08;12.30;99.90
32522;DHT22;18963;51.504;5.316;2022-10-22T01:37:43;12.30;99.90
32522;DHT22;18963;51.504;5.316;2022-10-22T01:40:09;12.30;99.90
32522;DHT22;18963;51.504;5.316;2022-10-22T01:42:36;12.20;99.90
32522;DHT22;18963;51.504;5.316;2022-10-22T01:45:01;12.20;99.90
32522;DHT22;18963;51.504;5.316;2022-10-22T01:53:39;12.30;99.90
32522;DHT22;18963;51.504;5.316;2022-10-22T02:01:31;12.10;99.90
32522;DHT22;18963;51.504;5.316;2022-10-22T02:04:25;12.10;99.90
32522;DHT22;18963;51.504;5.316;2022-10-22T02:06:55;12.10;99.90
32522;DHT22;18963;51.504;5.316;2022-10-22T02:09:25;12.10;99.90
32522;DHT22;18963;51.504;5.316;2022-10-22T02:11:53;12.10;99.90
32522;DHT22;18963;51.504;5.316;2022-10-22T02:14:19;12.00;99.90
32522;DHT22;18963;51.504;5.316;2022-10-22T02:16:47;12.00;99.90
32522;DHT22;18963;51.504;5.316;2022-10-22T02:19:24;12.00;99.90
32522;DHT22;18963;51.504;5.316;2022-10-22T02:21:53;12.00;99.90
32522;DHT22;18963;51.504;5.316;2022-10-22T02:24:20;11.90;99.90
32522;DHT22;18963;51.504;5.316;2022-10-22T02:29:27;11.80;99.90
32522;DHT22;18963;51.504;5.316;2022-10-22T02:31:55;11.70;99.90
32522;DHT22;18963;51.504;5.316;2022-10-22T02:34:25;11.60;99.90
32522;DHT22;18963;51.504;5.316;2022-10-22T02:36:53;11.50;99.90
32522;DHT22;18963;51.504;5.316;2022-10-22T02:39:20;11.40;99.90
32522;DHT22;18963;51.504;5.316;2022-10-22T02:41:46;11.30;99.90
32522;DHT22;18963;51.504;5.316;2022-10-22T02:44:12;11.30;99.90
32522;DHT22;18963;51.504;5.316;2022-10-22T02:46:38;11.20;99.90
32522;DHT22;18963;51.504;5.316;2022-10-22T02:49:04;11.20;99.90
32522;DHT22;18963;51.504;5.316;2022-10-22T02:51:30;11.10;99.90
32522;DHT22;18963;51.504;5.316;2022-10-22T02:53:56;11.20;99.90
32522;DHT22;18963;51.504;5.316;2022-10-22T02:56:22;11.20;99.90
32522;DHT22;18963;51.504;5.316;2022-10-22T02:58:47;11.20;99.90
32522;DHT22;18963;51.504;5.316;2022-10-22T03:01:13;11.20;99.90
32522;DHT22;18963;51.504;5.316;2022-10-22T03:03:39;11.30;99.90
32522;DHT22;18963;51.504;5.316;2022-10-22T03:06:05;11.30;99.90
32522;DHT22;18963;51.504;5.316;2022-10-22T03:08:30;11.30;99.90
32522;DHT22;18963;51.504;5.316;2022-10-22T03:10:56;11.40;99.90
32522;DHT22;18963;51.504;5.316;2022-10-22T03:13:22;11.50;99.90
32522;DHT22;18963;51.504;5.316;2022-10-22T03:15:48;11.50;99.90
32522;DHT22;18963;51.504;5.316;2022-10-22T03:18:14;11.60;99.90
32522;DHT22;18963;51.504;5.316;2022-10-22T03:20:40;11.70;99.90
32522;DHT22;18963;51.504;5.316;2022-10-22T03:23:05;11.60;99.90
32522;DHT22;18963;51.504;5.316;2022-10-22T03:25:31;11.60;99.90
32522;DHT22;18963;51.504;5.316;2022-10-22T03:28:02;11.60;99.90
32522;DHT22;18963;51.504;5.316;2022-10-22T03:30:29;11.60;99.90
32522;DHT22;18963;51.504;5.316;2022-10-22T03:32:55;11.60;99.90
32522;DHT22;18963;51.504;5.316;2022-10-22T03:35:20;11.70;99.90
32522;DHT22;18963;51.504;5.316;2022-10-22T03:37:46;11.70;99.90
32522;DHT22;18963;51.504;5.316;2022-10-22T03:40:12;11.70;99.90
32522;DHT22;18963;51.504;5.316;2022-10-22T03:42:39;11.80;99.90
32522;DHT22;18963;51.504;5.316;2022-10-22T03:45:06;11.80;99.90
32522;DHT22;18963;51.504;5.316;2022-10-22T03:47:31;11.80;99.90
32522;DHT22;18963;51.504;5.316;2022-10-22T03:49:57;11.80;99.90
32522;DHT22;18963;51.504;5.316;2022-10-22T03:52:23;11.90;99.90
32522;DHT22;18963;51.504;5.316;2022-10-22T03:54:48;11.90;99.90
32522;DHT22;18963;51.504;5.316;2022-10-22T03:57:14;11.90;99.90
32522;DHT22;18963;51.504;5.316;2022-10-22T03:59:42;11.90;99.90
32522;DHT22;18963;51.504;5.316;2022-10-22T04:02:09;12.00;99.90
32522;DHT22;18963;51.504;5.316;2022-10-22T04:04:36;12.00;99.90
32522;DHT22;18963;51.504;5.316;2022-10-22T04:07:02;12.00;99.90
32522;DHT22;18963;51.504;5.316;2022-10-22T04:09:31;12.10;99.90
32522;DHT22;18963;51.504;5.316;2022-10-22T04:11:57;12.10;99.90
32522;DHT22;18963;51.504;5.316;2022-10-22T04:14:23;12.10;99.90
32522;DHT22;18963;51.504;5.316;2022-10-22T04:16:49;12.10;99.90
32522;DHT22;18963;51.504;5.316;2022-10-22T04:19:15;12.20;99.90
32522;DHT22;18963;51.504;5.316;2022-10-22T04:21:41;12.10;99.90
32522;DHT22;18963;51.504;5.316;2022-10-22T04:24:06;12.20;99.90
32522;DHT22;18963;51.504;5.316;2022-10-22T04:26:32;12.20;99.90
32522;DHT22;18963;51.504;5.316;2022-10-22T04:28:58;12.20;99.90
32522;DHT22;18963;51.504;5.316;2022-10-22T04:31:24;12.20;99.90
32522;DHT22;18963;51.504;5.316;2022-10-22T04:33:56;12.20;99.90
32522;DHT22;18963;51.504;5.316;2022-10-22T04:36:22;12.20;99.90
32522;DHT22;18963;51.504;5.316;2022-10-22T04:38:53;12.20;99.90
32522;DHT22;18963;51.504;5.316;2022-10-22T04:41:23;12.30;99.90
32522;DHT22;18963;51.504;5.316;2022-10-22T04:43:49;12.30;99.90
32522;DHT22;18963;51.504;5.316;2022-10-22T04:46:17;12.30;99.90
32522;DHT22;18963;51.504;5.316;2022-10-22T04:48:44;12.30;99.90
32522;DHT22;18963;51.504;5.316;2022-10-22T04:51:12;12.30;99.90
32522;DHT22;18963;51.504;5.316;2022-10-22T04:53:39;12.30;99.90
32522;DHT22;18963;51.504;5.316;2022-10-22T04:58:36;12.30;99.90
32522;DHT22;18963;51.504;5.316;2022-10-22T05:03:35;12.30;99.90
32522;DHT22;18963;51.504;5.316;2022-10-22T05:06:01;12.40;99.90
32522;DHT22;18963;51.504;5.316;2022-10-22T05:08:27;12.40;99.90
32522;DHT22;18963;51.504;5.316;2022-10-22T05:10:52;12.40;99.90
32522;DHT22;18963;51.504;5.316;2022-10-22T05:13:18;12.50;99.90
32522;DHT22;18963;51.504;5.316;2022-10-22T05:15:43;12.60;99.90
32522;DHT22;18963;51.504;5.316;2022-10-22T05:18:09;12.60;99.90
32522;DHT22;18963;51.504;5.316;2022-10-22T05:20:38;12.70;99.90
32522;DHT22;18963;51.504;5.316;2022-10-22T05:23:04;12.70;99.90
32522;DHT22;18963;51.504;5.316;2022-10-22T05:25:29;12.80;99.90
32522;DHT22;18963;51.504;5.316;2022-10-22T05:27:55;12.80;99.90
32522;DHT22;18963;51.504;5.316;2022-10-22T05:30:21;12.80;99.90
32522;DHT22;18963;51.504;5.316;2022-10-22T05:32:46;12.80;99.90
32522;DHT22;18963;51.504;5.316;2022-10-22T05:35:12;12.80;99.90
32522;DHT22;18963;51.504;5.316;2022-10-22T05:37:37;12.80;99.90
32522;DHT22;18963;51.504;5.316;2022-10-22T05:40:04;12.80;99.90
32522;DHT22;18963;51.504;5.316;2022-10-22T05:42:32;12.80;99.90
32522;DHT22;18963;51.504;5.316;2022-10-22T05:44:58;12.80;99.90
32522;DHT22;18963;51.504;5.316;2022-10-22T05:47:24;12.80;99.90
32522;DHT22;18963;51.504;5.316;2022-10-22T05:49:50;12.80;99.90
32522;DHT22;18963;51.504;5.316;2022-10-22T05:52:15;12.80;99.90
32522;DHT22;18963;51.504;5.316;2022-10-22T05:54:41;12.80;99.90
32522;DHT22;18963;51.504;5.316;2022-10-22T05:57:07;12.70;99.90
32522;DHT22;18963;51.504;5.316;2022-10-22T05:59:32;12.70;99.90
32522;DHT22;18963;51.504;5.316;2022-10-22T06:01:58;12.70;99.90
32522;DHT22;18963;51.504;5.316;2022-10-22T06:04:26;12.70;99.90
32522;DHT22;18963;51.504;5.316;2022-10-22T06:06:52;12.70;99.90
32522;DHT22;18963;51.504;5.316;2022-10-22T06:09:27;12.60;99.90
32522;DHT22;18963;51.504;5.316;2022-10-22T06:11:54;12.60;99.90
32522;DHT22;18963;51.504;5.316;2022-10-22T06:14:20;12.60;99.90
32522;DHT22;18963;51.504;5.316;2022-10-22T06:16:47;12.60;99.90
32522;DHT22;18963;51.504;5.316;2022-10-22T06:19:15;12.60;99.90
32522;DHT22;18963;51.504;5.316;2022-10-22T06:21:41;12.60;99.90
32522;DHT22;18963;51.504;5.316;2022-10-22T06:24:07;12.50;99.90
32522;DHT22;18963;51.504;5.316;2022-10-22T06:26:33;12.60;99.90
32522;DHT22;18963;51.504;5.316;2022-10-22T06:28:59;12.60;99.90
32522;DHT22;18963;51.504;5.316;2022-10-22T06:31:26;12.50;99.90
32522;DHT22;18963;51.504;5.316;2022-10-22T06:33:52;12.50;99.90
32522;DHT22;18963;51.504;5.316;2022-10-22T06:36:20;12.50;99.90
32522;DHT22;18963;51.504;5.316;2022-10-22T06:38:46;12.50;99.90
32522;DHT22;18963;51.504;5.316;2022-10-22T06:41:13;12.40;99.90
32522;DHT22;18963;51.504;5.316;2022-10-22T06:43:40;12.40;99.90
32522;DHT22;18963;51.504;5.316;2022-10-22T06:46:08;12.40;99.90
32522;DHT22;18963;51.504;5.316;2022-10-22T06:48:37;12.40;99.90
32522;DHT22;18963;51.504;5.316;2022-10-22T06:51:14;12.40;99.90
32522;DHT22;18963;51.504;5.316;2022-10-22T06:53:40;12.40;99.90
32522;DHT22;18963;51.504;5.316;2022-10-22T06:56:07;12.40;99.90
32522;DHT22;18963;51.504;5.316;2022-10-22T06:58:34;12.40;99.90
32522;DHT22;18963;51.504;5.316;2022-10-22T07:01:04;12.40;99.90
32522;DHT22;18963;51.504;5.316;2022-10-22T07:03:30;12.40;99.90
32522;DHT22;18963;51.504;5.316;2022-10-22T07:06:01;12.40;99.90
32522;DHT22;18963;51.504;5.316;2022-10-22T07:08:27;12.50;99.90
32522;DHT22;18963;51.504;5.316;2022-10-22T07:10:53;12.60;99.90
32522;DHT22;18963;51.504;5.316;2022-10-22T07:13:18;12.70;99.90
32522;DHT22;18963;51.504;5.316;2022-10-22T07:15:44;12.80;99.90
32522;DHT22;18963;51.504;5.316;2022-10-22T07:18:10;13.00;99.90
32522;DHT22;18963;51.504;5.316;2022-10-22T07:20:35;13.10;99.90
32522;DHT22;18963;51.504;5.316;2022-10-22T07:23:01;13.20;99.90
32522;DHT22;18963;51.504;5.316;2022-10-22T07:25:26;13.30;99.90
32522;DHT22;18963;51.504;5.316;2022-10-22T07:27:52;13.30;99.90
32522;DHT22;18963;51.504;5.316;2022-10-22T07:30:17;13.40;99.90
32522;DHT22;18963;51.504;5.316;2022-10-22T07:32:43;13.40;99.90
32522;DHT22;18963;51.504;5.316;2022-10-22T07:35:09;13.40;99.90
32522;DHT22;18963;51.504;5.316;2022-10-22T07:37:34;13.50;99.90
32522;DHT22;18963;51.504;5.316;2022-10-22T07:40:00;13.70;99.90
32522;DHT22;18963;51.504;5.316;2022-10-22T07:42:26;13.90;99.90
32522;DHT22;18963;51.504;5.316;2022-10-22T07:44:51;14.10;99.90
32522;DHT22;18963;51.504;5.316;2022-10-22T07:47:17;14.20;99.90
32522;DHT22;18963;51.504;5.316;2022-10-22T07:49:42;14.30;99.90
32522;DHT22;18963;51.504;5.316;2022-10-22T07:52:08;14.30;99.90
32522;DHT22;18963;51.504;5.316;2022-10-22T07:54:33;14.40;99.90
32522;DHT22;18963;51.504;5.316;2022-10-22T07:56:59;14.50;99.90
32522;DHT22;18963;51.504;5.316;2022-10-22T07:59:25;14.60;99.90
32522;DHT22;18963;51.504;5.316;2022-10-22T08:01:50;14.60;99.90
32522;DHT22;18963;51.504;5.316;2022-10-22T08:04:16;14.70;99.90
32522;DHT22;18963;51.504;5.316;2022-10-22T08:06:42;14.70;99.90
32522;DHT22;18963;51.504;5.316;2022-10-22T08:09:07;14.80;99.90
32522;DHT22;18963;51.504;5.316;2022-10-22T08:11:33;15.00;99.90
32522;DHT22;18963;51.504;5.316;2022-10-22T08:13:59;15.20;99.90
32522;DHT22;18963;51.504;5.316;2022-10-22T08:16:25;15.50;99.90
32522;DHT22;18963;51.504;5.316;2022-10-22T08:18:50;15.70;99.90
32522;DHT22;18963;51.504;5.316;2022-10-22T08:21:16;15.90;99.90
32522;DHT22;18963;51.504;5.316;2022-10-22T08:23:42;16.00;99.90
32522;DHT22;18963;51.504;5.316;2022-10-22T08:26:10;16.10;99.90
32522;DHT22;18963;51.504;5.316;2022-10-22T08:28:36;16.10;99.90
32522;DHT22;18963;51.504;5.316;2022-10-22T08:31:04;16.30;99.90
32522;DHT22;18963;51.504;5.316;2022-10-22T08:33:30;16.30;99.90
32522;DHT22;18963;51.504;5.316;2022-10-22T08:35:55;16.40;99.90
32522;DHT22;18963;51.504;5.316;2022-10-22T08:38:21;16.50;99.90
32522;DHT22;18963;51.504;5.316;2022-10-22T08:40:50;16.50;99.90
32522;DHT22;18963;51.504;5.316;2022-10-22T08:48:42;16.60;99.90
32522;DHT22;18963;51.504;5.316;2022-10-22T08:51:11;16.70;99.90
32522;DHT22;18963;51.504;5.316;2022-10-22T08:56:22;16.70;99.90
32522;DHT22;18963;51.504;5.316;2022-10-22T08:58:50;16.70;99.90
32522;DHT22;18963;51.504;5.316;2022-10-22T09:01:28;16.70;99.90
32522;DHT22;18963;51.504;5.316;2022-10-22T09:04:36;16.80;99.90
32522;DHT22;18963;51.504;5.316;2022-10-22T09:07:02;16.80;99.90
32522;DHT22;18963;51.504;5.316;2022-10-22T09:09:34;16.70;99.90
32522;DHT22;18963;51.504;5.316;2022-10-22T09:12:04;16.70;99.90
32522;DHT22;18963;51.504;5.316;2022-10-22T09:14:29;16.70;99.90
32522;DHT22;18963;51.504;5.316;2022-10-22T09:25:30;16.50;99.90
32522;DHT22;18963;51.504;5.316;2022-10-22T09:27:57;16.50;99.90
32522;DHT22;18963;51.504;5.316;2022-10-22T09:30:34;16.60;99.90
32522;DHT22;18963;51.504;5.316;2022-10-22T09:35:35;16.50;99.90
32522;DHT22;18963;51.504;5.316;2022-10-22T09:38:08;16.50;99.90
32522;DHT22;18963;51.504;5.316;2022-10-22T09:40:51;16.50;99.90
32522;DHT22;18963;51.504;5.316;2022-10-22T09:43:17;16.50;99.90
32522;DHT22;18963;51.504;5.316;2022-10-22T09:45:48;16.50;99.90
32522;DHT22;18963;51.504;5.316;2022-10-22T09:48:21;16.60;99.90
32522;DHT22;18963;51.504;5.316;2022-10-22T09:51:02;16.60;99.90
32522;DHT22;18963;51.504;5.316;2022-10-22T09:53:29;16.70;99.90
32522;DHT22;18963;51.504;5.316;2022-10-22T09:56:00;16.60;99.90
32522;DHT22;18963;51.504;5.316;2022-10-22T09:58:26;16.60;99.90
32522;DHT22;18963;51.504;5.316;2022-10-22T10:00:57;16.60;99.90
32522;DHT22;18963;51.504;5.316;2022-10-22T10:03:26;16.60;99.90
32522;DHT22;18963;51.504;5.316;2022-10-22T10:05:54;16.70;99.90
32522;DHT22;18963;51.504;5.316;2022-10-22T10:08:20;16.70;99.90
32522;DHT22;18963;51.504;5.316;2022-10-22T10:10:53;16.70;99.90
32522;DHT22;18963;51.504;5.316;2022-10-22T10:22:04;16.70;99.90
32522;DHT22;18963;51.504;5.316;2022-10-22T10:27:49;16.90;99.90
32522;DHT22;18963;51.504;5.316;2022-10-22T10:30:19;17.00;99.90
32522;DHT22;18963;51.504;5.316;2022-10-22T10:33:09;17.00;99.90
32522;DHT22;18963;51.504;5.316;2022-10-22T10:36:10;17.20;99.90
32522;DHT22;18963;51.504;5.316;2022-10-22T10:42:00;17.50;99.90
32522;DHT22;18963;51.504;5.316;2022-10-22T10:44:46;17.70;99.90
32522;DHT22;18963;51.504;5.316;2022-10-22T10:49:53;17.90;99.90
32522;DHT22;18963;51.504;5.316;2022-10-22T10:52:37;18.20;99.90
32522;DHT22;18963;51.504;5.316;2022-10-22T10:55:31;18.30;99.90
32522;DHT22;18963;51.504;5.316;2022-10-22T11:00:55;18.50;99.90
32522;DHT22;18963;51.504;5.316;2022-10-22T11:06:16;18.90;99.90
32522;DHT22;18963;51.504;5.316;2022-10-22T11:08:53;19.30;99.90
32522;DHT22;18963;51.504;5.316;2022-10-22T11:11:43;19.80;99.90
32522;DHT22;18963;51.504;5.316;2022-10-22T11:14:20;20.40;99.90
32522;DHT22;18963;51.504;5.316;2022-10-22T11:16:54;20.90;99.90
32522;DHT22;18963;51.504;5.316;2022-10-22T11:19:37;20.90;99.90
32522;DHT22;18963;51.504;5.316;2022-10-22T11:22:12;20.70;99.90
32522;DHT22;18963;51.504;5.316;2022-10-22T11:29:43;19.40;99.90
32522;DHT22;18963;51.504;5.316;2022-10-22T11:32:21;19.10;99.90
32522;DHT22;18963;51.504;5.316;2022-10-22T11:34:53;19.10;99.90
32522;DHT22;18963;51.504;5.316;2022-10-22T11:37:21;19.20;99.90
32522;DHT22;18963;51.504;5.316;2022-10-22T11:39:51;19.30;99.90
32522;DHT22;18963;51.504;5.316;2022-10-22T11:42:21;19.50;99.90
32522;DHT22;18963;51.504;5.316;2022-10-22T11:44:57;19.60;99.90
32522;DHT22;18963;51.504;5.316;2022-10-22T11:47:25;19.60;99.90
32522;DHT22;18963;51.504;5.316;2022-10-22T11:55:00;19.50;99.90
32522;DHT22;18963;51.504;5.316;2022-10-22T11:57:27;19.40;99.90
32522;DHT22;18963;51.504;5.316;2022-10-22T11:59:58;19.40;99.90
32522;DHT22;18963;51.504;5.316;2022-10-22T12:04:54;19.40;99.90
32522;DHT22;18963;51.504;5.316;2022-10-22T12:07:52;19.50;99.90
32522;DHT22;18963;51.504;5.316;2022-10-22T12:10:26;19.50;99.90
32522;DHT22;18963;51.504;5.316;2022-10-22T12:12:57;19.50;99.90
32522;DHT22;18963;51.504;5.316;2022-10-22T12:15:27;19.50;99.90
32522;DHT22;18963;51.504;5.316;2022-10-22T12:17:58;19.50;99.90
32522;DHT22;18963;51.504;5.316;2022-10-22T12:20:25;19.50;99.90
32522;DHT22;18963;51.504;5.316;2022-10-22T12:22:51;19.40;99.90
32522;DHT22;18963;51.504;5.316;2022-10-22T12:25:22;19.40;99.90
32522;DHT22;18963;51.504;5.316;2022-10-22T12:27:54;19.30;99.90
32522;DHT22;18963;51.504;5.316;2022-10-22T12:30:31;19.30;99.90
32522;DHT22;18963;51.504;5.316;2022-10-22T12:33:00;19.20;99.90
32522;DHT22;18963;51.504;5.316;2022-10-22T12:35:28;19.20;99.90
32522;DHT22;18963;51.504;5.316;2022-10-22T12:37:59;19.20;99.90
32522;DHT22;18963;51.504;5.316;2022-10-22T12:40:34;19.20;99.90
32522;DHT22;18963;51.504;5.316;2022-10-22T12:45:50;19.20;99.90
32522;DHT22;18963;51.504;5.316;2022-10-22T12:48:21;19.20;99.90
32522;DHT22;18963;51.504;5.316;2022-10-22T12:50:59;19.30;99.90
32522;DHT22;18963;51.504;5.316;2022-10-22T12:53:34;19.30;99.90
32522;DHT22;18963;51.504;5.316;2022-10-22T12:56:04;19.30;99.90
32522;DHT22;18963;51.504;5.316;2022-10-22T12:58:46;19.40;99.90
32522;DHT22;18963;51.504;5.316;2022-10-22T13:01:14;19.40;99.90
32522;DHT22;18963;51.504;5.316;2022-10-22T13:03:43;19.50;99.90
32522;DHT22;18963;51.504;5.316;2022-10-22T13:09:13;19.40;99.90
32522;DHT22;18963;51.504;5.316;2022-10-22T13:11:40;19.30;99.90
32522;DHT22;18963;51.504;5.316;2022-10-22T13:14:28;19.20;99.90
32522;DHT22;18963;51.504;5.316;2022-10-22T13:22:28;18.70;99.90
32522;DHT22;18963;51.504;5.316;2022-10-22T13:24:54;18.50;99.90
32522;DHT22;18963;51.504;5.316;2022-10-22T13:27:22;18.50;99.90
32522;DHT22;18963;51.504;5.316;2022-10-22T13:29:48;18.40;99.90
32522;DHT22;18963;51.504;5.316;2022-10-22T13:32:26;18.30;99.90
32522;DHT22;18963;51.504;5.316;2022-10-22T13:34:55;18.20;99.90
32522;DHT22;18963;51.504;5.316;2022-10-22T13:37:20;18.10;99.90
32522;DHT22;18963;51.504;5.316;2022-10-22T13:39:46;18.00;99.90
32522;DHT22;18963;51.504;5.316;2022-10-22T13:42:12;18.00;99.90
32522;DHT22;18963;51.504;5.316;2022-10-22T13:44:37;17.90;99.90
32522;DHT22;18963;51.504;5.316;2022-10-22T13:47:09;17.80;99.90
32522;DHT22;18963;51.504;5.316;2022-10-22T13:49:41;17.80;99.90
32522;DHT22;18963;51.504;5.316;2022-10-22T13:52:23;17.70;99.90
32522;DHT22;18963;51.504;5.316;2022-10-22T13:54:50;17.70;99.90
32522;DHT22;18963;51.504;5.316;2022-10-22T13:57:16;17.60;99.90
32522;DHT22;18963;51.504;5.316;2022-10-22T13:59:42;17.60;99.90
32522;DHT22;18963;51.504;5.316;2022-10-22T14:02:11;17.50;99.90
32522;DHT22;18963;51.504;5.316;2022-10-22T14:04:39;17.50;99.90
32522;DHT22;18963;51.504;5.316;2022-10-22T14:07:15;17.40;99.90
32522;DHT22;18963;51.504;5.316;2022-10-22T14:09:41;17.30;99.90
32522;DHT22;18963;51.504;5.316;2022-10-22T14:12:15;17.30;99.90
32522;DHT22;18963;51.504;5.316;2022-10-22T14:14:41;17.20;99.90
32522;DHT22;18963;51.504;5.316;2022-10-22T14:17:12;17.20;99.90
32522;DHT22;18963;51.504;5.316;2022-10-22T14:19:43;17.10;99.90
32522;DHT22;18963;51.504;5.316;2022-10-22T14:22:19;17.10;99.90
32522;DHT22;18963;51.504;5.316;2022-10-22T14:24:45;17.00;99.90
32522;DHT22;18963;51.504;5.316;2022-10-22T14:27:13;17.10;99.90
32522;DHT22;18963;51.504;5.316;2022-10-22T14:29:39;17.00;99.90
32522;DHT22;18963;51.504;5.316;2022-10-22T14:32:17;17.10;99.90
32522;DHT22;18963;51.504;5.316;2022-10-22T14:34:46;17.10;99.90
32522;DHT22;18963;51.504;5.316;2022-10-22T14:37:17;17.20;99.90
32522;DHT22;18963;51.504;5.316;2022-10-22T14:39:44;17.20;99.90
32522;DHT22;18963;51.504;5.316;2022-10-22T14:42:16;17.20;99.90
32522;DHT22;18963;51.504;5.316;2022-10-22T14:44:42;17.20;99.90
32522;DHT22;18963;51.504;5.316;2022-10-22T14:47:08;17.20;99.90
32522;DHT22;18963;51.504;5.316;2022-10-22T14:49:36;17.20;99.90
32522;DHT22;18963;51.504;5.316;2022-10-22T14:52:02;17.20;99.90
32522;DHT22;18963;51.504;5.316;2022-10-22T14:54:27;17.20;99.90
32522;DHT22;18963;51.504;5.316;2022-10-22T14:56:53;17.20;99.90
32522;DHT22;18963;51.504;5.316;2022-10-22T14:59:19;17.10;99.90
32522;DHT22;18963;51.504;5.316;2022-10-22T15:01:44;17.10;99.90
32522;DHT22;18963;51.504;5.316;2022-10-22T15:04:10;17.00;99.90
32522;DHT22;18963;51.504;5.316;2022-10-22T15:06:35;17.00;99.90
32522;DHT22;18963;51.504;5.316;2022-10-22T15:09:01;16.90;99.90
32522;DHT22;18963;51.504;5.316;2022-10-22T15:11:26;16.80;99.90
32522;DHT22;18963;51.504;5.316;2022-10-22T15:13:52;16.80;99.90
32522;DHT22;18963;51.504;5.316;2022-10-22T15:16:18;16.70;99.90
32522;DHT22;18963;51.504;5.316;2022-10-22T15:18:47;16.70;99.90
32522;DHT22;18963;51.504;5.316;2022-10-22T15:21:17;16.60;99.90
32522;DHT22;18963;51.504;5.316;2022-10-22T15:23:43;16.50;99.90
32522;DHT22;18963;51.504;5.316;2022-10-22T15:26:11;16.50;99.90
32522;DHT22;18963;51.504;5.316;2022-10-22T15:28:38;16.40;99.90
32522;DHT22;18963;51.504;5.316;2022-10-22T15:31:04;16.40;99.90
32522;DHT22;18963;51.504;5.316;2022-10-22T15:33:30;16.30;99.90
32522;DHT22;18963;51.504;5.316;2022-10-22T15:35:56;16.20;99.90
32522;DHT22;18963;51.504;5.316;2022-10-22T15:38:29;16.10;99.90
32522;DHT22;18963;51.504;5.316;2022-10-22T15:41:02;16.00;99.90
32522;DHT22;18963;51.504;5.316;2022-10-22T15:43:28;16.00;99.90
32522;DHT22;18963;51.504;5.316;2022-10-22T15:46:11;15.90;99.90
32522;DHT22;18963;51.504;5.316;2022-10-22T15:48:38;15.80;99.90
32522;DHT22;18963;51.504;5.316;2022-10-22T15:51:22;15.70;99.90
32522;DHT22;18963;51.504;5.316;2022-10-22T15:53:56;15.70;99.90
32522;DHT22;18963;51.504;5.316;2022-10-22T15:56:23;15.60;99.90
32522;DHT22;18963;51.504;5.316;2022-10-22T15:59:00;15.50;99.90
32522;DHT22;18963;51.504;5.316;2022-10-22T16:01:30;15.40;99.90
32522;DHT22;18963;51.504;5.316;2022-10-22T16:03:56;15.30;99.90
32522;DHT22;18963;51.504;5.316;2022-10-22T16:06:45;15.20;99.90
32522;DHT22;18963;51.504;5.316;2022-10-22T16:09:13;15.10;99.90
32522;DHT22;18963;51.504;5.316;2022-10-22T16:11:40;15.00;99.90
32522;DHT22;18963;51.504;5.316;2022-10-22T16:14:06;14.90;99.90
32522;DHT22;18963;51.504;5.316;2022-10-22T16:16:34;14.80;99.90
32522;DHT22;18963;51.504;5.316;2022-10-22T16:19:00;14.70;99.90
32522;DHT22;18963;51.504;5.316;2022-10-22T16:21:26;14.70;99.90
32522;DHT22;18963;51.504;5.316;2022-10-22T16:23:52;14.50;99.90
32522;DHT22;18963;51.504;5.316;2022-10-22T16:26:19;14.50;99.90
32522;DHT22;18963;51.504;5.316;2022-10-22T16:28:46;14.40;99.90
32522;DHT22;18963;51.504;5.316;2022-10-22T16:31:14;14.20;99.90
32522;DHT22;18963;51.504;5.316;2022-10-22T16:33:40;14.20;99.90
32522;DHT22;18963;51.504;5.316;2022-10-22T16:36:10;14.10;99.90
32522;DHT22;18963;51.504;5.316;2022-10-22T16:38:36;14.00;99.90
32522;DHT22;18963;51.504;5.316;2022-10-22T16:41:19;14.00;99.90
32522;DHT22;18963;51.504;5.316;2022-10-22T16:43:46;13.90;99.90
32522;DHT22;18963;51.504;5.316;2022-10-22T16:46:16;13.80;99.90
32522;DHT22;18963;51.504;5.316;2022-10-22T16:48:46;13.80;99.90
32522;DHT22;18963;51.504;5.316;2022-10-22T16:51:14;13.70;99.90
32522;DHT22;18963;51.504;5.316;2022-10-22T16:53:40;13.60;99.90
32522;DHT22;18963;51.504;5.316;2022-10-22T16:56:10;13.50;99.90
32522;DHT22;18963;51.504;5.316;2022-10-22T16:58:37;13.40;99.90
32522;DHT22;18963;51.504;5.316;2022-10-22T17:01:07;13.30;99.90
32522;DHT22;18963;51.504;5.316;2022-10-22T17:03:33;13.30;99.90
32522;DHT22;18963;51.504;5.316;2022-10-22T17:06:00;13.20;99.90
32522;DHT22;18963;51.504;5.316;2022-10-22T17:08:25;13.20;99.90
32522;DHT22;18963;51.504;5.316;2022-10-22T17:10:51;13.20;99.90
32522;DHT22;18963;51.504;5.316;2022-10-22T17:13:17;13.10;99.90
32522;DHT22;18963;51.504;5.316;2022-10-22T17:15:43;13.10;99.90
32522;DHT22;18963;51.504;5.316;2022-10-22T17:18:09;13.00;99.90